Gallatin Field
KBZN : now visible

Airfield :











YOU CAN JOIN US ON...

 
LOGIN :

Register | Disclaimer

   EN    FR    IT 

 









Legend :    VFR   Marginal VFR   IFR   Intensive IFR   Very Intensive IFR
Visi :
Ceiling :
>= 8 km
>= 3000ft
5 to 8 km
1000 to 3000 ft
1500m to 5 km
500 to 1000 ft
800 to 1500m
200 to 500 ft
< 800m
< 200 ft
Symbols :   Thunderstorms  Fog  Heavy snow  Heavy precipitations  Wind > 20 kt







- Airport Elevation : 4473 ft
- IATA code : BZN


KBZN - Gallatin Field

CURRENT METAR :
  • 222356Z 31011KT 10SM FEW044 OVC060 17/10 A3001 RMK AO2 LTG DSNT SW RAB24E37 SLP138 P0000 60002 T01670100 10250 20156 51016

EXPIRED METARs :
  • 222256Z 32009KT 10SM BKN044 BKN090 16/11 A3000 RMK AO2 LTG DSNT SE AND S SLP134 T01610106
  • 222156Z 31015G24KT 10SM FEW040 SCT090 BKN110 16/10 A2999 RMK AO2 PK WND 32026/2140 LTG DSNT E RAB00E41 SLP126 P0002 T01560100

TAF KBZN
Valid from the 23 at 00:00 until the 24 at 06:00 UTC


222320Z 2300/2406 28012G22KT P6SM VCTS SCT035CB OVC090
TEMPO 2300/2304 VRB20G35KT 4SM -TSRA OVC035CB
FM230400 VRB04KT P6SM SCT003 BKN050
PROB30 2309/2315 4SM -RA BKN010
FM240300 VRB04KT P6SM SCT040 BKN250
No reported NOTAMs for that airfield.



MET'MAP, your aeronautical weather chart ! - Copyright ORBIFLY December 2007 - Disclaimer

ORBIFLY MET'MAP TEAM :

Programming & Development : Alexandra Zaïnal
Concept & Development : Baudouin d'Aumeries
Co-Development & Prog : Marc-Olivier Méhu
Technical & hardware support : Manuel Goepfert

Contact : metmap@orbifly.com




SOURCES & CREDITS :

   NOAA       Earth
Advisory